sensor_id;sensor_type;location;lat;lon;timestamp;temperature;humidity
72919;SHT30;61063;55.700;26.994;2022-07-04T00:00:54;24.5;65.5
72919;SHT30;61063;55.700;26.994;2022-07-04T00:05:54;24.5;65.5
72919;SHT30;61063;55.700;26.994;2022-07-04T00:10:54;24.5;65.4
72919;SHT30;61063;55.700;26.994;2022-07-04T00:15:54;24.5;65.6
72919;SHT30;61063;55.700;26.994;2022-07-04T00:20:54;24.5;65.7
72919;SHT30;61063;55.700;26.994;2022-07-04T00:25:54;24.5;65.5
72919;SHT30;61063;55.700;26.994;2022-07-04T00:30:54;24.5;65.2
72919;SHT30;61063;55.700;26.994;2022-07-04T00:35:54;24.5;65.2
72919;SHT30;61063;55.700;26.994;2022-07-04T00:40:54;24.5;65
72919;SHT30;61063;55.700;26.994;2022-07-04T00:45:54;24.5;64.9
72919;SHT30;61063;55.700;26.994;2022-07-04T00:50:54;24.5;64.8
72919;SHT30;61063;55.700;26.994;2022-07-04T00:55:54;24.5;64.8
72919;SHT30;61063;55.700;26.994;2022-07-04T01:00:54;24.5;64.6
72919;SHT30;61063;55.700;26.994;2022-07-04T01:05:55;24.5;64.5
72919;SHT30;61063;55.700;26.994;2022-07-04T01:10:54;24.6;64.4
72919;SHT30;61063;55.700;26.994;2022-07-04T01:15:54;24.6;64.4
72919;SHT30;61063;55.700;26.994;2022-07-04T01:20:54;24.5;64.7
72919;SHT30;61063;55.700;26.994;2022-07-04T01:25:55;24.6;64.9
72919;SHT30;61063;55.700;26.994;2022-07-04T01:30:54;24.5;64.9
72919;SHT30;61063;55.700;26.994;2022-07-04T01:35:54;24.5;64.7
72919;SHT30;61063;55.700;26.994;2022-07-04T01:40:54;24.5;64.5
72919;SHT30;61063;55.700;26.994;2022-07-04T01:45:54;24.5;64.4
72919;SHT30;61063;55.700;26.994;2022-07-04T01:50:54;24.4;64.6
72919;SHT30;61063;55.700;26.994;2022-07-04T01:55:54;24.4;64.9
72919;SHT30;61063;55.700;26.994;2022-07-04T02:00:54;24.4;64.8
72919;SHT30;61063;55.700;26.994;2022-07-04T02:05:54;24.4;64.5
72919;SHT30;61063;55.700;26.994;2022-07-04T02:10:54;24.4;64.4
72919;SHT30;61063;55.700;26.994;2022-07-04T02:15:54;24.5;64.2
72919;SHT30;61063;55.700;26.994;2022-07-04T02:20:54;24.5;64
72919;SHT30;61063;55.700;26.994;2022-07-04T02:25:54;24.4;64
72919;SHT30;61063;55.700;26.994;2022-07-04T02:30:54;24.4;63.9
72919;SHT30;61063;55.700;26.994;2022-07-04T02:35:54;24.4;63.9
72919;SHT30;61063;55.700;26.994;2022-07-04T02:40:54;24.4;63.9
72919;SHT30;61063;55.700;26.994;2022-07-04T02:45:54;24.4;64
72919;SHT30;61063;55.700;26.994;2022-07-04T02:50:54;24.4;63.9
72919;SHT30;61063;55.700;26.994;2022-07-04T02:55:54;24.4;63.8
72919;SHT30;61063;55.700;26.994;2022-07-04T03:00:54;24.4;63.7
72919;SHT30;61063;55.700;26.994;2022-07-04T03:05:54;24.4;63.8
72919;SHT30;61063;55.700;26.994;2022-07-04T03:10:54;24.5;63.5
72919;SHT30;61063;55.700;26.994;2022-07-04T03:15:54;24.7;63.1
72919;SHT30;61063;55.700;26.994;2022-07-04T03:20:54;24.9;62.7
72919;SHT30;61063;55.700;26.994;2022-07-04T03:25:54;25;62.7
72919;SHT30;61063;55.700;26.994;2022-07-04T03:30:54;25;63.3
72919;SHT30;61063;55.700;26.994;2022-07-04T03:35:54;25;63.7
72919;SHT30;61063;55.700;26.994;2022-07-04T03:40:54;25.3;63
72919;SHT30;61063;55.700;26.994;2022-07-04T03:45:54;25.4;62.9
72919;SHT30;61063;55.700;26.994;2022-07-04T03:50:54;25;64.5
72919;SHT30;61063;55.700;26.994;2022-07-04T03:55:54;24.8;65.4
72919;SHT30;61063;55.700;26.994;2022-07-04T04:00:54;24.6;66.8
72919;SHT30;61063;55.700;26.994;2022-07-04T04:05:54;23.6;70.3
72919;SHT30;61063;55.700;26.994;2022-07-04T04:10:54;23.1;72
72919;SHT30;61063;55.700;26.994;2022-07-04T04:15:54;23.4;71.2
72919;SHT30;61063;55.700;26.994;2022-07-04T04:20:54;24;69.6
72919;SHT30;61063;55.700;26.994;2022-07-04T04:25:54;23.9;70
72919;SHT30;61063;55.700;26.994;2022-07-04T04:30:54;23.9;70.2
72919;SHT30;61063;55.700;26.994;2022-07-04T04:35:54;23.6;71.5
72919;SHT30;61063;55.700;26.994;2022-07-04T04:40:54;23.3;72.9
72919;SHT30;61063;55.700;26.994;2022-07-04T04:45:54;23.6;72.4
72919;SHT30;61063;55.700;26.994;2022-07-04T04:50:54;24.3;70.1
72919;SHT30;61063;55.700;26.994;2022-07-04T04:55:54;24.8;68.4
72919;SHT30;61063;55.700;26.994;2022-07-04T05:00:54;25;68.2
72919;SHT30;61063;55.700;26.994;2022-07-04T05:05:54;24.2;70.6
72919;SHT30;61063;55.700;26.994;2022-07-04T05:10:54;24.1;71.1
72919;SHT30;61063;55.700;26.994;2022-07-04T05:15:54;24.4;69.8
72919;SHT30;61063;55.700;26.994;2022-07-04T05:20:54;25;67.9
72919;SHT30;61063;55.700;26.994;2022-07-04T05:25:54;25.1;67.3
72919;SHT30;61063;55.700;26.994;2022-07-04T05:30:54;25.4;66.3
72919;SHT30;61063;55.700;26.994;2022-07-04T05:35:54;25.2;66.4
72919;SHT30;61063;55.700;26.994;2022-07-04T05:40:54;25.4;66.3
72919;SHT30;61063;55.700;26.994;2022-07-04T05:45:54;25.4;66.7
72919;SHT30;61063;55.700;26.994;2022-07-04T05:50:54;25.6;66.6
72919;SHT30;61063;55.700;26.994;2022-07-04T05:55:54;25.9;65.4
72919;SHT30;61063;55.700;26.994;2022-07-04T06:00:54;26;65.4
72919;SHT30;61063;55.700;26.994;2022-07-04T06:05:54;25.8;66.6
72919;SHT30;61063;55.700;26.994;2022-07-04T06:10:54;25.6;67
72919;SHT30;61063;55.700;26.994;2022-07-04T06:15:54;25.8;66.4
72919;SHT30;61063;55.700;26.994;2022-07-04T06:20:54;26.1;64.8
72919;SHT30;61063;55.700;26.994;2022-07-04T06:25:54;26.6;63.3
72919;SHT30;61063;55.700;26.994;2022-07-04T06:30:54;26.3;64.8
72919;SHT30;61063;55.700;26.994;2022-07-04T06:35:54;25.5;67.5
72919;SHT30;61063;55.700;26.994;2022-07-04T06:40:55;25.4;67.9
72919;SHT30;61063;55.700;26.994;2022-07-04T06:45:54;26.1;65.7
72919;SHT30;61063;55.700;26.994;2022-07-04T06:50:54;26.6;65
72919;SHT30;61063;55.700;26.994;2022-07-04T06:55:54;27;63.9
72919;SHT30;61063;55.700;26.994;2022-07-04T07:00:57;27.6;62.9
72919;SHT30;61063;55.700;26.994;2022-07-04T07:05:54;27.8;62
72919;SHT30;61063;55.700;26.994;2022-07-04T07:10:56;28;62.6
72919;SHT30;61063;55.700;26.994;2022-07-04T07:15:54;28.2;61.5
72919;SHT30;61063;55.700;26.994;2022-07-04T07:20:54;28.4;61.5
72919;SHT30;61063;55.700;26.994;2022-07-04T07:25:54;28.1;61.1
72919;SHT30;61063;55.700;26.994;2022-07-04T07:30:54;27.9;61.2
72919;SHT30;61063;55.700;26.994;2022-07-04T07:35:54;27.7;61.6
72919;SHT30;61063;55.700;26.994;2022-07-04T07:40:54;27.6;62.1
72919;SHT30;61063;55.700;26.994;2022-07-04T07:45:55;27.7;62.1
72919;SHT30;61063;55.700;26.994;2022-07-04T07:50:54;27.9;61.3
72919;SHT30;61063;55.700;26.994;2022-07-04T07:55:54;28.3;61
72919;SHT30;61063;55.700;26.994;2022-07-04T08:00:54;28.9;59.3
72919;SHT30;61063;55.700;26.994;2022-07-04T08:05:54;29.3;58.2
72919;SHT30;61063;55.700;26.994;2022-07-04T08:10:54;29.2;58.5
72919;SHT30;61063;55.700;26.994;2022-07-04T08:15:54;29.1;58.6
72919;SHT30;61063;55.700;26.994;2022-07-04T08:20:54;28.9;59.5
72919;SHT30;61063;55.700;26.994;2022-07-04T08:25:54;29.2;58.8
72919;SHT30;61063;55.700;26.994;2022-07-04T08:30:55;29.3;57.8
72919;SHT30;61063;55.700;26.994;2022-07-04T08:35:54;28.5;61.2
72919;SHT30;61063;55.700;26.994;2022-07-04T08:40:56;28.2;61.5
72919;SHT30;61063;55.700;26.994;2022-07-04T08:45:54;28.4;61.3
72919;SHT30;61063;55.700;26.994;2022-07-04T08:50:55;28.5;60.9
72919;SHT30;61063;55.700;26.994;2022-07-04T08:55:55;28.9;60.5
72919;SHT30;61063;55.700;26.994;2022-07-04T09:00:55;29.1;59.3
72919;SHT30;61063;55.700;26.994;2022-07-04T09:05:55;29.1;59.8
72919;SHT30;61063;55.700;26.994;2022-07-04T09:10:54;28.6;60.5
72919;SHT30;61063;55.700;26.994;2022-07-04T09:15:55;28.8;61
72919;SHT30;61063;55.700;26.994;2022-07-04T09:20:55;29.4;59.4
72919;SHT30;61063;55.700;26.994;2022-07-04T09:26:26;28.5;61
72919;SHT30;61063;55.700;26.994;2022-07-04T09:30:54;28.3;61.7
72919;SHT30;61063;55.700;26.994;2022-07-04T09:35:54;28.5;61.2
72919;SHT30;61063;55.700;26.994;2022-07-04T09:40:54;28.4;61.6
72919;SHT30;61063;55.700;26.994;2022-07-04T09:45:55;29.2;60
72919;SHT30;61063;55.700;26.994;2022-07-04T09:50:54;28.8;60.1
72919;SHT30;61063;55.700;26.994;2022-07-04T09:55:54;28.3;61.9
72919;SHT30;61063;55.700;26.994;2022-07-04T10:00:58;28;63.3
72919;SHT30;61063;55.700;26.994;2022-07-04T10:06:11;27.6;63.6
72919;SHT30;61063;55.700;26.994;2022-07-04T10:10:56;27.1;64.6
72919;SHT30;61063;55.700;26.994;2022-07-04T10:15:54;26.8;65.7
72919;SHT30;61063;55.700;26.994;2022-07-04T10:20:55;27.1;65.4
72919;SHT30;61063;55.700;26.994;2022-07-04T10:25:54;27.4;64.9
72919;SHT30;61063;55.700;26.994;2022-07-04T10:30:55;27.1;65.7
72919;SHT30;61063;55.700;26.994;2022-07-04T10:35:55;26.4;65.1
72919;SHT30;61063;55.700;26.994;2022-07-04T10:41:00;26.1;65
72919;SHT30;61063;55.700;26.994;2022-07-04T10:45:54;26.4;65
72919;SHT30;61063;55.700;26.994;2022-07-04T10:50:58;26.7;64.5
72919;SHT30;61063;55.700;26.994;2022-07-04T10:56:03;25.9;65.7
72919;SHT30;61063;55.700;26.994;2022-07-04T11:01:26;24.7;69.1
72919;SHT30;61063;55.700;26.994;2022-07-04T11:05:54;23.7;70.8
72919;SHT30;61063;55.700;26.994;2022-07-04T11:10:54;23.6;71.4
72919;SHT30;61063;55.700;26.994;2022-07-04T11:15:58;23.8;72
72919;SHT30;61063;55.700;26.994;2022-07-04T11:20:54;23.7;71.4
72919;SHT30;61063;55.700;26.994;2022-07-04T11:25:54;23.6;71.7
72919;SHT30;61063;55.700;26.994;2022-07-04T11:30:55;23.7;73
72919;SHT30;61063;55.700;26.994;2022-07-04T11:36:26;24.3;70.6
72919;SHT30;61063;55.700;26.994;2022-07-04T11:40:54;24.5;69.8
72919;SHT30;61063;55.700;26.994;2022-07-04T11:45:54;24.4;71.2
72919;SHT30;61063;55.700;26.994;2022-07-04T11:50:54;23.6;73.3
72919;SHT30;61063;55.700;26.994;2022-07-04T11:55:55;23;73.6
72919;SHT30;61063;55.700;26.994;2022-07-04T12:00:54;22.7;74.6
72919;SHT30;61063;55.700;26.994;2022-07-04T12:06:10;22.5;75.3
72919;SHT30;61063;55.700;26.994;2022-07-04T12:10:54;22.4;75.8
72919;SHT30;61063;55.700;26.994;2022-07-04T12:15:54;22.1;76.6
72919;SHT30;61063;55.700;26.994;2022-07-04T12:20:54;21.8;77.2
72919;SHT30;61063;55.700;26.994;2022-07-04T12:25:55;21.7;77.6
72919;SHT30;61063;55.700;26.994;2022-07-04T12:30:56;21.7;78.1
72919;SHT30;61063;55.700;26.994;2022-07-04T12:35:56;21.5;79
72919;SHT30;61063;55.700;26.994;2022-07-04T12:40:57;21.7;79.2
72919;SHT30;61063;55.700;26.994;2022-07-04T12:45:55;22;78.4
72919;SHT30;61063;55.700;26.994;2022-07-04T12:50:59;22.3;77.6
72919;SHT30;61063;55.700;26.994;2022-07-04T12:55:54;22.3;77.5
72919;SHT30;61063;55.700;26.994;2022-07-04T13:00:54;22.5;78.1
72919;SHT30;61063;55.700;26.994;2022-07-04T13:05:54;23.1;76.6
72919;SHT30;61063;55.700;26.994;2022-07-04T13:10:54;23.5;76.3
72919;SHT30;61063;55.700;26.994;2022-07-04T13:15:54;24.3;73.1
72919;SHT30;61063;55.700;26.994;2022-07-04T13:20:54;25;70.6
72919;SHT30;61063;55.700;26.994;2022-07-04T13:25:54;25.6;70.2
72919;SHT30;61063;55.700;26.994;2022-07-04T13:30:54;25.8;69.6
72919;SHT30;61063;55.700;26.994;2022-07-04T13:35:55;26;70.6
72919;SHT30;61063;55.700;26.994;2022-07-04T13:40:54;26;70.6
72919;SHT30;61063;55.700;26.994;2022-07-04T13:45:54;26;70.6
72919;SHT30;61063;55.700;26.994;2022-07-04T13:50:54;26;70.6
72919;SHT30;61063;55.700;26.994;2022-07-04T13:55:54;26.4;69
72919;SHT30;61063;55.700;26.994;2022-07-04T14:00:54;26.7;67.3
72919;SHT30;61063;55.700;26.994;2022-07-04T14:05:54;26.9;65.5
72919;SHT30;61063;55.700;26.994;2022-07-04T14:10:55;27;65.7
72919;SHT30;61063;55.700;26.994;2022-07-04T14:15:54;26.7;67.5
72919;SHT30;61063;55.700;26.994;2022-07-04T14:20:54;27;67.2
72919;SHT30;61063;55.700;26.994;2022-07-04T14:25:54;27;68.7
72919;SHT30;61063;55.700;26.994;2022-07-04T14:30:54;26.8;66.9
72919;SHT30;61063;55.700;26.994;2022-07-04T14:35:54;26.8;67.2
72919;SHT30;61063;55.700;26.994;2022-07-04T14:40:54;26.7;67
72919;SHT30;61063;55.700;26.994;2022-07-04T14:45:54;26.7;65.9
72919;SHT30;61063;55.700;26.994;2022-07-04T14:50:54;26.8;65.9
72919;SHT30;61063;55.700;26.994;2022-07-04T14:55:54;26.7;66.4
72919;SHT30;61063;55.700;26.994;2022-07-04T15:00:55;26.5;65
72919;SHT30;61063;55.700;26.994;2022-07-04T15:05:54;26.4;66
72919;SHT30;61063;55.700;26.994;2022-07-04T15:10:54;26.2;66.6
72919;SHT30;61063;55.700;26.994;2022-07-04T15:15:54;26.2;66.6
72919;SHT30;61063;55.700;26.994;2022-07-04T15:20:54;26;66.3
72919;SHT30;61063;55.700;26.994;2022-07-04T15:25:54;26;66.8
72919;SHT30;61063;55.700;26.994;2022-07-04T15:30:54;26.2;67.1
72919;SHT30;61063;55.700;26.994;2022-07-04T15:35:54;26.2;68.4
72919;SHT30;61063;55.700;26.994;2022-07-04T15:40:54;26;68.7
72919;SHT30;61063;55.700;26.994;2022-07-04T15:45:55;25.9;68.1
72919;SHT30;61063;55.700;26.994;2022-07-04T15:50:54;25.8;67.8
72919;SHT30;61063;55.700;26.994;2022-07-04T15:55:54;25.7;68.7
72919;SHT30;61063;55.700;26.994;2022-07-04T16:00:54;25.6;69
72919;SHT30;61063;55.700;26.994;2022-07-04T16:05:54;25.5;69.3
72919;SHT30;61063;55.700;26.994;2022-07-04T16:10:54;26;68.8
72919;SHT30;61063;55.700;26.994;2022-07-04T16:15:54;27.1;65.8
72919;SHT30;61063;55.700;26.994;2022-07-04T16:20:54;28.2;63.4
72919;SHT30;61063;55.700;26.994;2022-07-04T16:25:54;28;62.5
72919;SHT30;61063;55.700;26.994;2022-07-04T16:30:54;28;63.7
72919;SHT30;61063;55.700;26.994;2022-07-04T16:35:54;28.2;63.8
72919;SHT30;61063;55.700;26.994;2022-07-04T16:40:54;28.3;63
72919;SHT30;61063;55.700;26.994;2022-07-04T16:45:54;28.4;62.4
72919;SHT30;61063;55.700;26.994;2022-07-04T16:50:54;28.5;61.3
72919;SHT30;61063;55.700;26.994;2022-07-04T16:55:54;28.8;60.4
72919;SHT30;61063;55.700;26.994;2022-07-04T17:00:54;29;60.5
72919;SHT30;61063;55.700;26.994;2022-07-04T17:05:54;29.1;59.8
72919;SHT30;61063;55.700;26.994;2022-07-04T17:10:55;28.7;61
72919;SHT30;61063;55.700;26.994;2022-07-04T17:15:54;28.4;61.9
72919;SHT30;61063;55.700;26.994;2022-07-04T17:20:54;27.9;63
72919;SHT30;61063;55.700;26.994;2022-07-04T17:25:54;27.1;65.6
72919;SHT30;61063;55.700;26.994;2022-07-04T17:30:54;26.5;67.3
72919;SHT30;61063;55.700;26.994;2022-07-04T17:35:54;26.1;69.3
72919;SHT30;61063;55.700;26.994;2022-07-04T17:40:54;25.7;70.4
72919;SHT30;61063;55.700;26.994;2022-07-04T17:45:54;25.2;71.9
72919;SHT30;61063;55.700;26.994;2022-07-04T17:50:54;24.8;72.8
72919;SHT30;61063;55.700;26.994;2022-07-04T17:55:54;24.5;73.5
72919;SHT30;61063;55.700;26.994;2022-07-04T18:00:54;24.3;74.1
72919;SHT30;61063;55.700;26.994;2022-07-04T18:05:54;24;74.8
72919;SHT30;61063;55.700;26.994;2022-07-04T18:10:54;23.9;75.2
72919;SHT30;61063;55.700;26.994;2022-07-04T18:15:54;23.8;75.6
72919;SHT30;61063;55.700;26.994;2022-07-04T18:20:54;23.5;76.1
72919;SHT30;61063;55.700;26.994;2022-07-04T18:25:54;23.1;77.2
72919;SHT30;61063;55.700;26.994;2022-07-04T18:31:10;23;77.8
72919;SHT30;61063;55.700;26.994;2022-07-04T18:35:54;22.9;77.7
72919;SHT30;61063;55.700;26.994;2022-07-04T18:40:55;22.7;77.9
72919;SHT30;61063;55.700;26.994;2022-07-04T18:45:57;22.5;78.4
72919;SHT30;61063;55.700;26.994;2022-07-04T18:50:54;22.3;78.6
72919;SHT30;61063;55.700;26.994;2022-07-04T18:55:54;22.2;78.8
72919;SHT30;61063;55.700;26.994;2022-07-04T19:00:54;22;79.4
72919;SHT30;61063;55.700;26.994;2022-07-04T19:05:54;21.8;79.6
72919;SHT30;61063;55.700;26.994;2022-07-04T19:10:54;21.6;80
72919;SHT30;61063;55.700;26.994;2022-07-04T19:15:54;21.3;80.8
72919;SHT30;61063;55.700;26.994;2022-07-04T19:20:54;21.2;81.4
72919;SHT30;61063;55.700;26.994;2022-07-04T19:25:54;22.7;79.2
72919;SHT30;61063;55.700;26.994;2022-07-04T19:30:54;24.1;73.7
72919;SHT30;61063;55.700;26.994;2022-07-04T19:35:54;24.6;70.7
72919;SHT30;61063;55.700;26.994;2022-07-04T19:40:54;24.8;69.4
72919;SHT30;61063;55.700;26.994;2022-07-04T19:45:54;24.8;69
72919;SHT30;61063;55.700;26.994;2022-07-04T19:50:54;24.8;68.8
72919;SHT30;61063;55.700;26.994;2022-07-04T19:55:54;24.9;68.6
72919;SHT30;61063;55.700;26.994;2022-07-04T20:00:54;24.8;69
72919;SHT30;61063;55.700;26.994;2022-07-04T20:05:54;24.7;69.4
72919;SHT30;61063;55.700;26.994;2022-07-04T20:10:54;24.8;69.2
72919;SHT30;61063;55.700;26.994;2022-07-04T20:15:54;24.9;68.8
72919;SHT30;61063;55.700;26.994;2022-07-04T20:20:54;24.9;68.1
72919;SHT30;61063;55.700;26.994;2022-07-04T20:25:54;24.9;67.7
72919;SHT30;61063;55.700;26.994;2022-07-04T20:30:54;25;67.5
72919;SHT30;61063;55.700;26.994;2022-07-04T20:35:54;24.9;67.4
72919;SHT30;61063;55.700;26.994;2022-07-04T20:40:54;25;67.2
72919;SHT30;61063;55.700;26.994;2022-07-04T20:45:54;24.9;67.2
72919;SHT30;61063;55.700;26.994;2022-07-04T20:50:54;24.9;67.2
72919;SHT30;61063;55.700;26.994;2022-07-04T20:55:54;24.7;66.9
72919;SHT30;61063;55.700;26.994;2022-07-04T21:00:54;24.5;67.3
72919;SHT30;61063;55.700;26.994;2022-07-04T21:05:54;24;68.2
72919;SHT30;61063;55.700;26.994;2022-07-04T21:10:54;23.7;68.8
72919;SHT30;61063;55.700;26.994;2022-07-04T21:15:54;23.8;68.4
72919;SHT30;61063;55.700;26.994;2022-07-04T21:20:54;23.7;68.7
72919;SHT30;61063;55.700;26.994;2022-07-04T21:25:54;23.8;67.9
72919;SHT30;61063;55.700;26.994;2022-07-04T21:30:54;23.5;68.1
72919;SHT30;61063;55.700;26.994;2022-07-04T21:35:54;23.4;68.1
72919;SHT30;61063;55.700;26.994;2022-07-04T21:40:56;23.6;68.1
72919;SHT30;61063;55.700;26.994;2022-07-04T21:45:54;23.6;67.7
72919;SHT30;61063;55.700;26.994;2022-07-04T21:50:55;23.3;68
72919;SHT30;61063;55.700;26.994;2022-07-04T21:55:54;23.2;68.3
72919;SHT30;61063;55.700;26.994;2022-07-04T22:00:54;23.1;68.2
72919;SHT30;61063;55.700;26.994;2022-07-04T22:05:54;23;68.8
72919;SHT30;61063;55.700;26.994;2022-07-04T22:10:54;23.3;68.2
72919;SHT30;61063;55.700;26.994;2022-07-04T22:15:54;23.6;67
72919;SHT30;61063;55.700;26.994;2022-07-04T22:20:54;23.3;67.5
72919;SHT30;61063;55.700;26.994;2022-07-04T22:25:54;23;67.7
72919;SHT30;61063;55.700;26.994;2022-07-04T22:30:54;23;68
72919;SHT30;61063;55.700;26.994;2022-07-04T22:35:54;23;68
72919;SHT30;61063;55.700;26.994;2022-07-04T22:40:54;22.8;68.3
72919;SHT30;61063;55.700;26.994;2022-07-04T22:45:54;22.5;68.4
72919;SHT30;61063;55.700;26.994;2022-07-04T22:50:54;22.1;69.7
72919;SHT30;61063;55.700;26.994;2022-07-04T22:55:54;21.9;69.7
72919;SHT30;61063;55.700;26.994;2022-07-04T23:00:54;21.7;70.8
72919;SHT30;61063;55.700;26.994;2022-07-04T23:05:54;21.6;71
72919;SHT30;61063;55.700;26.994;2022-07-04T23:10:54;21.6;70.7
72919;SHT30;61063;55.700;26.994;2022-07-04T23:15:54;21.5;70.9
72919;SHT30;61063;55.700;26.994;2022-07-04T23:20:54;20.9;72.1
72919;SHT30;61063;55.700;26.994;2022-07-04T23:25:54;20.8;72.5
72919;SHT30;61063;55.700;26.994;2022-07-04T23:30:54;21;73.3
72919;SHT30;61063;55.700;26.994;2022-07-04T23:35:54;21.4;71.7
72919;SHT30;61063;55.700;26.994;2022-07-04T23:40:54;21.2;72.3
72919;SHT30;61063;55.700;26.994;2022-07-04T23:45:54;21.3;72
72919;SHT30;61063;55.700;26.994;2022-07-04T23:50:54;21.4;71.6
72919;SHT30;61063;55.700;26.994;2022-07-04T23:55:54;21.3;71.7
